Time;durP1;ratioP1;P1;durP2;ratioP2;P2;SDS_P1;SDS_P2;PMS_P1;PMS_P2;Temp;Humidity;BMP_temperature;BMP_pressure;BME280_temperature;BME280_humidity;BME280_pressure;Samples;Min_cycle;Max_cycle;Signal;HPM_P1;HPM_P2
2022/12/02 00:04:40;;;;;;;43.55;23.00;;;;;;;-0.32;100.00;99919.09;4295357;81;21046;-86
2022/12/02 00:10:43;;;;;;;44.03;21.00;;;;;;;-0.32;100.00;99917.74;4298315;82;20982;-87
2022/12/02 00:16:47;;;;;;;43.15;20.23;;;;;;;-0.34;100.00;99911.83;4294129;81;21009;-86
2022/12/02 00:22:48;;;;;;;43.80;20.82;;;;;;;-0.38;100.00;99909.45;4299729;81;21043;-88
2022/12/02 00:28:51;;;;;;;39.58;19.55;;;;;;;-0.42;100.00;99908.39;4298812;81;20998;-86
2022/12/02 00:34:59;;;;;;;42.38;19.40;;;;;;;-0.46;100.00;99904.67;4301850;81;21019;-85
2022/12/02 00:41:01;;;;;;;38.00;17.67;;;;;;;-0.54;100.00;99891.83;4305984;81;21887;-86
2022/12/02 00:47:02;;;;;;;38.50;18.32;;;;;;;-0.49;100.00;99908.46;4301492;81;21630;-85
2022/12/02 00:53:03;;;;;;;35.78;17.37;;;;;;;-0.53;100.00;99906.87;4285214;81;21557;-85
2022/12/02 00:59:05;;;;;;;38.25;19.40;;;;;;;-0.55;100.00;99896.92;4283731;81;21050;-85
2022/12/02 01:05:08;;;;;;;37.30;19.35;;;;;;;-0.55;100.00;99896.92;4282268;81;21721;-85
2022/12/02 01:11:10;;;;;;;41.13;19.12;;;;;;;-0.57;100.00;99891.05;4283405;81;21110;-85
2022/12/02 01:17:11;;;;;;;37.23;20.32;;;;;;;-0.58;100.00;99890.77;4305259;81;21045;-85
2022/12/02 01:23:14;;;;;;;39.10;19.73;;;;;;;-0.59;100.00;99885.66;4326541;81;21061;-86
2022/12/02 01:29:17;;;;;;;42.62;20.27;;;;;;;-0.59;100.00;99887.01;4320000;81;21872;-86
2022/12/02 01:35:19;;;;;;;42.40;20.00;;;;;;;-0.60;100.00;99875.47;4320304;81;21029;-86
2022/12/02 01:41:21;;;;;;;42.60;20.12;;;;;;;-0.61;100.00;99878.44;4318781;81;20954;-85
2022/12/02 01:47:23;;;;;;;42.25;19.60;;;;;;;-0.65;100.00;99873.34;4324300;81;21836;-87
2022/12/02 01:53:25;;;;;;;47.17;19.80;;;;;;;-0.65;100.00;99873.34;4323354;81;21065;-86
2022/12/02 01:59:28;;;;;;;47.48;22.05;;;;;;;-0.64;100.00;99875.75;4321105;81;21022;-85
2022/12/02 02:05:32;;;;;;;47.35;21.85;;;;;;;-0.64;100.00;99875.75;4326132;81;21033;-85
2022/12/02 02:11:35;;;;;;;43.35;20.62;;;;;;;-0.63;100.00;99874.69;4318970;81;21030;-86
2022/12/02 02:17:37;;;;;;;42.03;19.35;;;;;;;-0.68;100.00;99851.05;4315578;80;21110;-86
2022/12/02 02:23:39;;;;;;;45.43;20.68;;;;;;;-0.66;100.00;99864.46;4285414;81;21566;-87
2022/12/02 02:29:42;;;;;;;40.20;19.55;;;;;;;-0.70;100.00;99867.47;4288856;81;21076;-86
2022/12/02 02:35:44;;;;;;;48.40;21.60;;;;;;;-0.70;100.00;99866.66;4289357;81;21039;-86
2022/12/02 02:41:53;;;;;;;47.83;22.45;;;;;;;-0.71;100.00;99867.22;4287605;81;21014;-85
2022/12/02 02:47:56;;;;;;;44.55;21.37;;;;;;;-0.78;100.00;99847.89;4297991;81;21004;-85
2022/12/02 02:53:59;;;;;;;46.92;22.95;;;;;;;-0.71;100.00;99856.99;4273145;81;21461;-86
2022/12/02 03:00:03;;;;;;;48.58;22.87;;;;;;;-0.70;100.00;99854.02;4285894;81;21034;-85
2022/12/02 03:06:08;;;;;;;53.63;23.13;;;;;;;-0.69;100.00;99849.45;4286993;81;20985;-85
2022/12/02 03:12:10;;;;;;;47.65;22.13;;;;;;;-0.66;100.00;99843.52;4289285;81;21010;-86
2022/12/02 03:18:12;;;;;;;48.15;23.35;;;;;;;-0.67;100.00;99841.89;4269651;81;21483;-85
2022/12/02 03:24:14;;;;;;;44.63;21.33;;;;;;;-0.69;100.00;99844.86;4267817;83;21076;-85
2022/12/02 03:30:16;;;;;;;42.27;20.90;;;;;;;-0.67;100.00;99834.64;4260141;83;21017;-86
2022/12/02 03:36:17;;;;;;;52.80;23.85;;;;;;;-0.69;100.00;99830.64;4191060;83;23951;-85
2022/12/02 03:42:19;;;;;;;45.85;21.93;;;;;;;-0.68;100.00;99837.61;4178363;84;21566;-86
2022/12/02 03:48:22;;;;;;;47.50;22.53;;;;;;;-0.71;100.00;99833.61;4187140;84;21594;-85
2022/12/02 03:54:23;;;;;;;51.02;23.98;;;;;;;-0.69;100.00;99830.64;4184443;83;20993;-86
2022/12/02 04:00:26;;;;;;;49.98;24.32;;;;;;;-0.72;100.00;99826.60;4193774;83;21080;-87
2022/12/02 04:06:31;;;;;;;45.17;22.83;;;;;;;-0.72;100.00;99823.13;4159926;84;21947;-85
2022/12/02 04:12:32;;;;;;;43.13;21.53;;;;;;;-0.74;100.00;99821.27;4180499;83;21038;-85
2022/12/02 04:18:34;;;;;;;48.55;23.25;;;;;;;-0.76;100.00;99824.23;4189202;83;21555;-86
2022/12/02 04:24:35;;;;;;;45.88;22.75;;;;;;;-0.76;100.00;99824.23;4189009;83;20997;-86
2022/12/02 04:30:37;;;;;;;52.75;23.25;;;;;;;-0.74;100.00;99823.95;4180302;84;21665;-85
2022/12/02 04:36:38;;;;;;;48.05;23.32;;;;;;;-0.78;100.00;99820.20;4174325;84;21101;-86
2022/12/02 04:42:40;;;;;;;41.70;21.73;;;;;;;-0.79;100.00;99819.95;4190393;83;21058;-86
2022/12/02 04:48:41;;;;;;;41.48;21.30;;;;;;;-0.80;100.00;99817.80;4185911;83;21057;-85
2022/12/02 04:54:44;;;;;;;52.62;22.17;;;;;;;-0.87;100.00;99811.95;4181568;83;21865;-85
2022/12/02 05:00:46;;;;;;;45.45;20.72;;;;;;;-0.83;100.00;99825.64;4196404;82;97189;-85
2022/12/02 05:06:47;;;;;;;49.03;22.10;;;;;;;-0.89;100.00;99819.48;4274103;83;21058;-85
2022/12/02 05:12:50;;;;;;;43.03;20.47;;;;;;;-0.88;100.00;99825.67;4276411;83;21047;-85
2022/12/02 05:18:51;;;;;;;45.85;21.12;;;;;;;-0.90;100.00;99819.77;4276243;82;21594;-86
2022/12/02 05:24:52;;;;;;;50.45;22.55;;;;;;;-0.90;100.00;99821.11;4276424;82;21051;-86
2022/12/02 05:30:53;;;;;;;47.30;23.03;;;;;;;-0.90;100.00;99829.98;4273218;82;21665;-86
2022/12/02 05:36:56;;;;;;;41.70;20.92;;;;;;;-0.92;100.00;99827.30;4274590;82;21054;-85
2022/12/02 05:43:01;;;;;;;40.98;20.92;;;;;;;-0.92;100.00;99828.11;4275420;82;21011;-85
2022/12/02 05:49:09;;;;;;;38.67;19.05;;;;;;;-0.94;100.00;99823.55;4273994;82;21067;-85
2022/12/02 05:55:19;;;;;;;39.10;18.02;;;;;;;-0.95;100.00;99817.11;4273146;82;20992;-85
2022/12/02 06:01:25;;;;;;;41.30;19.50;;;;;;;-0.96;100.00;99824.38;4275757;82;21890;-86
2022/12/02 06:07:26;;;;;;;38.25;18.48;;;;;;;-0.99;100.00;99826.83;4277307;82;21046;-85
2022/12/02 06:13:32;;;;;;;37.97;17.90;;;;;;;-1.03;100.00;99824.41;4274837;82;21531;-85
2022/12/02 06:19:55;;;;;;;38.80;17.73;;;;;;;-1.07;100.00;99828.75;4289332;82;21047;-85
2022/12/02 06:25:59;;;;;;;38.42;19.30;;;;;;;-1.06;100.00;99833.03;4286058;82;21010;-86
2022/12/02 06:32:01;;;;;;;44.88;20.05;;;;;;;-1.10;100.00;99832.81;4295772;82;21639;-85
2022/12/02 06:38:14;;;;;;;40.95;18.48;;;;;;;-1.09;100.00;99838.97;4289750;82;21054;-86
2022/12/02 06:50:46;;;;;;;43.40;20.77;;;;;;;-1.13;100.00;99844.12;4264411;82;21039;-86
2022/12/02 06:56:49;;;;;;;35.13;18.13;;;;;;;-1.13;100.00;99843.30;4249588;82;21016;-87
2022/12/02 07:02:50;;;;;;;36.70;18.33;;;;;;;-1.14;100.00;99851.11;4250310;82;21054;-87
2022/12/02 07:08:59;;;;;;;38.33;20.50;;;;;;;-1.15;100.00;99852.17;4250686;82;21522;-86
2022/12/02 07:15:15;;;;;;;40.17;19.77;;;;;;;-1.17;100.00;99856.48;4251743;82;21112;-86
2022/12/02 07:21:17;;;;;;;42.05;19.60;;;;;;;-1.17;100.00;99857.83;4240458;82;21000;-88
2022/12/02 07:27:27;;;;;;;39.83;19.23;;;;;;;-1.16;100.00;99850.02;4235953;82;21035;-87
2022/12/02 07:33:29;;;;;;;33.75;17.67;;;;;;;-1.21;100.00;99852.76;4239610;82;20988;-86
2022/12/02 07:39:31;;;;;;;33.00;17.05;;;;;;;-1.26;100.00;99856.81;4238670;82;21138;-86
2022/12/02 07:45:33;;;;;;;33.83;17.42;;;;;;;-1.27;100.00;99857.91;4237067;82;21028;-86
2022/12/02 07:51:38;;;;;;;30.65;15.35;;;;;;;-1.29;100.00;99854.69;4237351;82;21032;-88
2022/12/02 07:57:39;;;;;;;31.27;16.42;;;;;;;-1.29;100.00;99856.55;4238220;82;21990;-87
2022/12/02 08:03:41;;;;;;;34.83;17.57;;;;;;;-1.26;100.00;99862.19;4238086;82;21043;-86
2022/12/02 08:09:44;;;;;;;32.83;16.73;;;;;;;-1.29;100.00;99864.08;4236038;82;22190;-87
2022/12/02 08:15:45;;;;;;;35.70;16.45;;;;;;;-1.31;100.00;99861.39;4236883;82;21819;-86
2022/12/02 08:21:52;;;;;;;36.87;17.97;;;;;;;-1.30;100.00;99861.11;4247827;83;20992;-87
2022/12/02 08:27:53;;;;;;;;;;;;;;;-1.28;100.00;99862.99;4252363;82;20972;-87
2022/12/02 08:33:54;;;;;;;32.23;16.03;;;;;;;-1.27;100.00;99862.46;4254442;82;20580;-86
2022/12/02 08:39:56;;;;;;;33.97;16.03;;;;;;;-1.32;100.00;99869.20;4232303;82;21055;-86
2022/12/02 08:45:58;;;;;;;31.57;15.27;;;;;;;-1.30;100.00;99873.20;4253016;82;20952;-86
2022/12/02 08:52:00;;;;;;;33.40;15.37;;;;;;;-1.25;100.00;99877.77;4252140;83;21654;-87
2022/12/02 08:58:01;;;;;;;32.15;16.95;;;;;;;-1.24;100.00;99880.18;4251158;83;21051;-86
2022/12/02 09:04:03;;;;;;;29.33;15.23;;;;;;;-1.20;100.00;99877.19;4250393;83;21028;-86
2022/12/02 09:10:07;;;;;;;32.90;16.35;;;;;;;-1.18;100.00;99875.05;4251633;82;20968;-85
2022/12/02 09:16:08;;;;;;;37.23;16.77;;;;;;;-1.15;100.00;99869.11;4249051;83;21055;-86
2022/12/02 09:22:10;;;;;;;32.73;15.32;;;;;;;-1.17;100.00;99872.61;4238674;83;21071;-87
2022/12/02 09:28:12;;;;;;;35.35;16.60;;;;;;;-1.13;100.00;99862.11;4238582;82;21087;-87
2022/12/02 09:34:13;;;;;;;28.47;14.90;;;;;;;-1.15;100.00;99865.61;4239569;82;21052;-86
2022/12/02 09:40:15;;;;;;;32.90;16.87;;;;;;;-1.14;100.00;99861.86;4236849;82;21012;-86
2022/12/02 09:46:17;;;;;;;32.20;16.15;;;;;;;-1.11;100.00;99866.12;4238538;82;21047;-86
2022/12/02 09:52:25;;;;;;;35.33;16.87;;;;;;;-1.06;100.00;99862.59;4241160;82;21985;-86
2022/12/02 09:58:27;;;;;;;32.20;17.93;;;;;;;-1.01;100.00;99863.38;4238301;82;21027;-86
2022/12/02 10:04:28;;;;;;;39.08;18.75;;;;;;;-0.99;100.00;99855.86;4238466;84;21846;-86
2022/12/02 10:10:38;;;;;;;32.10;16.67;;;;;;;-1.00;100.00;99862.85;4238958;82;21016;-86
2022/12/02 10:16:40;;;;;;;33.73;16.50;;;;;;;-1.04;100.00;99857.22;4238165;82;21023;-86
2022/12/02 10:23:17;;;;;;;37.33;17.30;;;;;;;-1.09;100.00;99853.22;4235783;82;21000;-85
2022/12/02 10:29:30;;;;;;;;;;;;;;;-1.12;100.00;99843.56;4231567;82;21063;-86
2022/12/02 10:35:47;;;;;;;38.80;19.00;;;;;;;-1.13;100.00;99842.78;4236718;82;20117;-86
2022/12/02 10:42:12;;;;;;;38.13;18.87;;;;;;;-1.15;100.00;99832.84;4239575;82;20972;-86
2022/12/02 10:48:16;;;;;;;36.20;18.33;;;;;;;-1.12;100.00;99832.81;4229537;82;21056;-86
2022/12/02 10:54:28;;;;;;;34.73;16.97;;;;;;;-1.11;100.00;99836.56;4237530;82;21000;-86
2022/12/02 11:00:29;;;;;;;36.03;17.77;;;;;;;-1.11;100.00;99836.56;4237250;82;21015;-86
2022/12/02 11:06:31;;;;;;;46.00;21.87;;;;;;;-1.10;100.00;99833.34;4239098;82;21004;-86
2022/12/02 11:12:50;;;;;;;56.65;23.15;;;;;;;-1.08;100.00;99823.91;4236825;82;20961;-86
2022/12/02 11:19:12;;;;;;;38.88;19.02;;;;;;;-1.04;100.00;99823.63;4238182;82;21040;-87
2022/12/02 11:25:48;;;;;;;43.40;19.27;;;;;;;-1.04;100.00;99826.84;4251829;82;21011;-85
2022/12/02 11:32:30;;;;;;;112.30;35.47;;;;;;;-1.12;100.00;99819.38;4245827;82;21094;-85
2022/12/02 11:39:00;;;;;;;77.25;28.45;;;;;;;-1.13;100.00;99829.34;4250194;82;21071;-85
2022/12/02 11:45:30;;;;;;;54.43;21.47;;;;;;;-1.12;100.00;99825.56;4251429;82;21051;-85
2022/12/02 11:51:46;;;;;;;38.45;18.15;;;;;;;-1.12;100.00;99817.50;4250798;82;21558;-85
2022/12/02 11:57:56;;;;;;;49.73;20.83;;;;;;;-1.12;100.00;99818.84;4208605;82;21047;-86
2022/12/02 12:03:58;;;;;;;49.25;19.92;;;;;;;-1.04;100.00;99813.41;4249390;82;21036;-86
2022/12/02 12:10:00;;;;;;;40.12;18.80;;;;;;;-1.04;100.00;99812.06;4247433;82;21426;-85
2022/12/02 12:16:02;;;;;;;47.33;21.27;;;;;;;-1.02;100.00;99810.73;4250917;82;21623;-86
2022/12/02 12:22:24;;;;;;;33.67;17.62;;;;;;;-1.01;100.00;99800.76;4245069;82;21471;-86
2022/12/02 12:28:36;;;;;;;45.48;20.15;;;;;;;-1.04;100.00;99795.95;4236631;82;21067;-86
2022/12/02 12:34:39;;;;;;;37.55;18.20;;;;;;;-1.05;100.00;99797.04;4292415;81;21514;-86
2022/12/02 12:40:40;;;;;;;42.23;19.23;;;;;;;-1.08;100.00;99790.32;4301936;81;21058;-87
2022/12/02 12:46:43;;;;;;;47.47;21.03;;;;;;;-1.06;100.00;99796.23;4298026;81;21614;-86
2022/12/02 12:52:45;;;;;;;49.43;21.63;;;;;;;-1.04;100.00;99797.29;4291666;81;21073;-86
2022/12/02 12:58:46;;;;;;;38.50;19.45;;;;;;;-1.03;100.00;99796.20;4289853;81;21027;-87
2022/12/02 13:04:48;;;;;;;50.35;22.40;;;;;;;-1.01;100.00;99802.10;4302037;81;21575;-86
2022/12/02 13:10:49;;;;;;;46.55;21.30;;;;;;;-1.01;100.00;99795.39;4294827;81;21046;-86
2022/12/02 13:16:50;;;;;;;44.63;19.02;;;;;;;-1.02;100.00;99792.45;4298200;81;21606;-87
2022/12/02 13:22:52;;;;;;;44.27;20.43;;;;;;;-1.06;100.00;99789.51;4278562;81;21031;-86
2022/12/02 13:28:56;;;;;;;51.07;21.63;;;;;;;-1.06;100.00;99798.91;4283408;82;21083;-86
2022/12/02 13:35:00;;;;;;;38.98;19.48;;;;;;;-1.12;100.00;99800.03;4281914;82;21523;-86
2022/12/02 13:41:01;;;;;;;41.37;20.77;;;;;;;-1.12;100.00;99793.84;4282079;82;21562;-86
2022/12/02 13:47:04;;;;;;;43.83;19.07;;;;;;;-1.12;100.00;99793.84;4284090;81;21062;-88
2022/12/02 13:53:05;;;;;;;43.00;21.10;;;;;;;-1.14;100.00;99798.72;4281146;82;21035;-87
2022/12/02 13:59:07;;;;;;;40.80;19.40;;;;;;;-1.20;100.00;99799.81;4292187;80;21495;-87
2022/12/02 14:05:09;;;;;;;45.92;20.60;;;;;;;-1.23;100.00;99805.21;4287919;81;21049;-88
2022/12/02 14:11:10;;;;;;;46.23;21.13;;;;;;;-1.26;100.00;99804.43;4279705;82;21094;-87
2022/12/02 14:17:12;;;;;;;45.77;20.90;;;;;;;-1.32;100.00;99812.26;4276134;82;22007;-87
2022/12/02 14:23:14;;;;;;;40.90;20.50;;;;;;;-1.33;100.00;99812.53;4257330;82;21044;-87
2022/12/02 14:29:16;;;;;;;46.97;20.57;;;;;;;-1.37;100.00;99810.94;4246255;82;21373;-87
2022/12/02 14:35:17;;;;;;;44.63;22.10;;;;;;;-1.36;100.00;99809.84;4250282;82;21539;-88
2022/12/02 14:41:18;;;;;;;46.13;21.90;;;;;;;-1.40;100.00;99815.52;4250387;82;21044;-87
2022/12/02 14:47:20;;;;;;;45.27;21.73;;;;;;;-1.42;100.00;99817.67;4247448;82;20983;-87
2022/12/02 14:53:23;;;;;;;50.10;23.27;;;;;;;-1.47;100.00;99818.26;4250633;83;21945;-87
2022/12/02 14:59:24;;;;;;;50.97;23.80;;;;;;;-1.49;100.00;99818.53;4249019;82;20968;-86
2022/12/02 15:05:26;;;;;;;55.83;22.83;;;;;;;-1.50;100.00;99816.91;4252690;82;21801;-87
2022/12/02 15:11:27;;;;;;;41.23;20.90;;;;;;;-1.51;100.00;99823.37;4250966;82;20959;-87
2022/12/02 15:17:28;;;;;;;51.87;23.37;;;;;;;-1.54;100.00;99816.39;4249018;84;21611;-87
2022/12/02 15:23:30;;;;;;;56.10;25.80;;;;;;;-1.56;100.00;99824.73;4270688;81;21062;-86
2022/12/02 15:29:32;;;;;;;53.43;22.77;;;;;;;-1.57;100.00;99827.16;4275595;82;21131;-87
2022/12/02 15:35:33;;;;;;;48.93;21.47;;;;;;;-1.57;100.00;99826.59;4270959;81;21105;-87
2022/12/02 15:41:35;;;;;;;52.57;22.57;;;;;;;-1.57;100.00;99833.31;4275440;81;21535;-87
2022/12/02 15:47:36;;;;;;;52.03;24.00;;;;;;;-1.60;100.00;99831.18;4276335;82;21650;-86
2022/12/02 15:53:38;;;;;;;57.40;24.23;;;;;;;-1.58;100.00;99830.12;4296613;81;21454;-87
2022/12/02 15:59:39;;;;;;;53.40;24.27;;;;;;;-1.57;100.00;99831.72;4297295;81;21055;-86
2022/12/02 16:05:41;;;;;;;57.70;25.53;;;;;;;-1.57;100.00;99830.38;4295908;81;21055;-86
2022/12/02 16:11:43;;;;;;;51.17;22.47;;;;;;;-1.55;100.00;99826.88;4295898;81;21019;-86
2022/12/02 16:17:47;;;;;;;57.07;23.07;;;;;;;-1.54;100.00;99830.63;4296160;81;21047;-87
2022/12/02 16:23:48;;;;;;;52.70;23.60;;;;;;;-1.57;100.00;99834.66;4266941;81;21015;-86
2022/12/02 16:29:49;;;;;;;47.73;22.97;;;;;;;-1.54;100.00;99833.84;4296620;81;20947;-86
2022/12/02 16:35:52;;;;;;;59.13;24.70;;;;;;;-1.52;100.00;99839.76;4298985;81;21043;-86
2022/12/02 16:41:53;;;;;;;55.07;24.00;;;;;;;-1.52;100.00;99835.20;4150516;84;21008;-86
2022/12/02 16:47:56;;;;;;;60.53;23.90;;;;;;;-1.54;100.00;99834.66;4294736;81;21067;-86
2022/12/02 16:54:15;;;;;;;55.13;24.93;;;;;;;-1.55;100.00;99834.37;4302296;81;21007;-85
2022/12/02 17:00:25;;;;;;;64.27;27.43;;;;;;;-1.57;100.00;99841.37;4293341;81;21075;-86
2022/12/02 17:06:26;;;;;;;60.73;26.17;;;;;;;-1.57;100.00;99839.77;4299734;81;21006;-85
2022/12/02 17:12:28;;;;;;;64.77;26.37;;;;;;;-1.60;100.00;99837.11;4295159;81;21018;-86
2022/12/02 17:18:29;;;;;;;67.40;27.87;;;;;;;-1.60;100.00;99839.23;4302709;81;21007;-86
2022/12/02 17:24:32;;;;;;;69.90;26.70;;;;;;;-1.60;100.00;99844.60;4288693;80;20981;-85
2022/12/02 17:30:33;;;;;;;84.43;32.57;;;;;;;-1.63;100.00;99845.16;4274687;82;21039;-85
2022/12/02 17:36:35;;;;;;;80.70;32.07;;;;;;;-1.64;100.00;99846.78;4274410;82;21007;-85
2022/12/02 17:42:36;;;;;;;77.07;30.20;;;;;;;-1.64;100.00;99851.61;4206022;83;21481;-85
2022/12/02 17:48:38;;;;;;;74.33;29.93;;;;;;;-1.62;100.00;99856.71;4277444;82;21098;-85
2022/12/02 17:54:40;;;;;;;65.10;28.20;;;;;;;-1.60;100.00;99854.56;4151107;82;9999983;-87
2022/12/02 18:00:41;;;;;;;74.83;29.50;;;;;;;-1.61;100.00;99867.70;4268994;82;21020;-85
2022/12/02 18:06:45;;;;;;;74.43;29.40;;;;;;;-1.61;100.00;99870.38;4280825;82;21083;-85
2022/12/02 18:12:46;;;;;;;72.53;30.80;;;;;;;-1.61;100.00;99869.05;4275078;82;21020;-86
2022/12/02 18:18:48;;;;;;;83.83;32.60;;;;;;;-1.64;100.00;99870.41;4270432;82;21829;-86
2022/12/02 18:24:49;;;;;;;83.50;32.73;;;;;;;-1.63;100.00;99872.00;4267592;82;21028;-85
2022/12/02 18:30:51;;;;;;;86.93;33.67;;;;;;;-1.63;100.00;99863.95;4278234;82;20975;-86
2022/12/02 18:36:52;;;;;;;81.77;33.63;;;;;;;-1.63;100.00;99865.30;4276226;82;21016;-85
2022/12/02 18:42:54;;;;;;;89.00;33.27;;;;;;;-1.60;100.00;99874.14;4268121;82;21326;-85
2022/12/02 18:48:55;;;;;;;84.13;31.83;;;;;;;-1.58;100.00;99873.08;4263794;82;21000;-85
2022/12/02 18:54:56;;;;;;;85.17;33.08;;;;;;;-1.58;100.00;99875.77;4250810;82;21537;-84
2022/12/02 19:00:58;;;;;;;92.97;33.50;;;;;;;-1.60;100.00;99876.04;4269855;82;20972;-85
2022/12/02 19:07:02;;;;;;;78.57;32.37;;;;;;;-1.62;100.00;99877.66;4277150;82;21894;-84
2022/12/02 19:13:03;;;;;;;85.62;34.27;;;;;;;-1.61;100.00;99871.20;4268481;82;21000;-86
2022/12/02 19:19:05;;;;;;;94.53;37.43;;;;;;;-1.58;100.00;99867.16;4260567;82;21923;-85
2022/12/02 19:25:07;;;;;;;86.60;34.37;;;;;;;-1.55;100.00;99865.81;4276802;82;21020;-85
2022/12/02 19:31:10;;;;;;;90.80;38.17;;;;;;;-1.55;100.00;99868.50;4273044;82;21027;-85
2022/12/02 19:37:11;;;;;;;98.57;38.60;;;;;;;-1.55;100.00;99867.16;4273416;82;20996;-85
2022/12/02 19:43:14;;;;;;;93.97;38.20;;;;;;;-1.50;100.00;99865.80;4280101;82;21042;-85
2022/12/02 19:49:15;;;;;;;116.43;38.83;;;;;;;-1.47;100.00;99868.72;4266254;82;21970;-85
2022/12/02 19:55:17;;;;;;;90.20;34.43;;;;;;;-1.46;100.00;99865.50;4256349;82;21958;-85
2022/12/02 20:01:18;;;;;;;113.90;40.77;;;;;;;-1.47;100.00;99873.30;4256325;82;21000;-84
2022/12/02 20:07:19;;;;;;;91.73;38.20;;;;;;;-1.48;100.00;99867.12;4253457;83;21580;-85
2022/12/02 20:13:21;;;;;;;103.57;36.40;;;;;;;-1.49;100.00;99856.66;4252198;82;20998;-84
2022/12/02 20:19:22;;;;;;;93.47;35.53;;;;;;;-1.49;100.00;99858.00;4253155;83;21003;-85
2022/12/02 20:25:23;;;;;;;97.70;36.67;;;;;;;-1.51;100.00;99858.27;4248221;83;21014;-85
2022/12/02 20:31:25;;;;;;;106.47;39.37;;;;;;;-1.52;100.00;99853.19;4280136;82;20999;-85
2022/12/02 20:37:26;;;;;;;103.37;40.30;;;;;;;-1.55;100.00;99843.78;4285813;82;21016;-85
2022/12/02 20:43:27;;;;;;;96.97;36.03;;;;;;;-1.55;100.00;99839.75;4205273;83;20985;-86
2022/12/02 20:49:29;;;;;;;95.47;37.27;;;;;;;-1.54;100.00;99838.69;4196535;83;21008;-85
2022/12/02 20:55:30;;;;;;;95.87;37.27;;;;;;;-1.52;100.00;99836.54;4267910;82;21007;-85
2022/12/02 21:01:32;;;;;;;102.03;37.70;;;;;;;-1.53;100.00;99842.97;4266989;82;21958;-85
2022/12/02 21:07:33;;;;;;;104.60;39.00;;;;;;;-1.53;100.00;99842.19;4273852;82;21571;-85
2022/12/02 21:13:34;;;;;;;93.87;38.70;;;;;;;-1.53;100.00;99843.53;4267938;82;21063;-85
2022/12/02 21:19:36;;;;;;;102.43;36.37;;;;;;;-1.52;100.00;99847.28;4258953;82;21000;-85
2022/12/02 21:25:37;;;;;;;92.93;35.70;;;;;;;-1.51;100.00;99848.87;4239211;82;21016;-85
2022/12/02 21:31:39;;;;;;;96.17;35.60;;;;;;;-1.49;100.00;99850.75;4231850;82;21021;-86
2022/12/02 21:37:40;;;;;;;97.73;35.80;;;;;;;-1.49;100.00;99848.60;4232318;82;21071;-85
2022/12/02 21:43:42;;;;;;;111.33;43.03;;;;;;;-1.48;100.00;99855.03;4230297;82;21654;-85
2022/12/02 21:49:43;;;;;;;100.03;37.53;;;;;;;-1.48;100.00;99856.37;4231622;82;21015;-84
2022/12/02 21:55:45;;;;;;;100.77;38.13;;;;;;;-1.46;100.00;99852.08;4232015;82;21051;-84
2022/12/02 22:01:47;;;;;;;95.33;37.30;;;;;;;-1.45;100.00;99848.30;4235298;82;21063;-85
2022/12/02 22:07:49;;;;;;;95.07;35.70;;;;;;;-1.46;100.00;99856.91;4236552;82;21036;-85
2022/12/02 22:13:50;;;;;;;92.10;36.93;;;;;;;-1.44;100.00;99858.77;4233710;82;21026;-86
2022/12/02 22:19:51;;;;;;;102.33;38.43;;;;;;;-1.43;100.00;99854.20;4237585;82;22017;-85
2022/12/02 22:25:53;;;;;;;91.30;36.77;;;;;;;-1.41;100.00;99850.19;4236778;83;21123;-84
2022/12/02 22:31:54;;;;;;;89.73;36.10;;;;;;;-1.40;100.00;99849.09;4238832;82;20984;-84
2022/12/02 22:37:56;;;;;;;91.57;35.47;;;;;;;-1.40;100.00;99846.94;4236302;82;21599;-85
2022/12/02 22:43:57;;;;;;;100.47;37.20;;;;;;;-1.41;100.00;99844.00;4237789;82;21184;-85
2022/12/02 22:49:58;;;;;;;91.13;34.70;;;;;;;-1.41;100.00;99842.66;4236107;82;22261;-85
2022/12/02 22:55:59;;;;;;;87.43;36.03;;;;;;;-1.40;100.00;99850.44;4236520;84;21020;-85
2022/12/02 23:02:01;;;;;;;93.30;35.13;;;;;;;-1.38;100.00;99859.03;4240418;84;21635;-85
2022/12/02 23:08:04;;;;;;;97.27;35.13;;;;;;;-1.36;100.00;99849.35;4236959;82;21043;-84
2022/12/02 23:14:06;;;;;;;92.93;36.23;;;;;;;-1.36;100.00;99849.35;4239290;82;21571;-84
2022/12/02 23:20:09;;;;;;;104.40;39.73;;;;;;;-1.34;100.00;99861.41;4276946;82;21639;-85
2022/12/02 23:26:11;;;;;;;100.83;39.13;;;;;;;-1.34;100.00;99847.17;4273836;82;21039;-84
2022/12/02 23:32:12;;;;;;;97.33;38.07;;;;;;;-1.35;100.00;99846.92;4275193;83;21011;-85
2022/12/02 23:38:15;;;;;;;98.63;37.23;;;;;;;-1.34;100.00;99841.27;4273030;82;22084;-85
2022/12/02 23:44:17;;;;;;;102.07;39.27;;;;;;;-1.32;100.00;99843.68;4272672;82;21523;-85
2022/12/02 23:50:19;;;;;;;92.63;37.57;;;;;;;-1.33;100.00;99842.08;4279313;82;21014;-85
2022/12/02 23:56:21;;;;;;;109.73;38.00;;;;;;;-1.31;100.00;99843.93;4279553;82;21531;-85
